Terminal Aerodrome Forecast
Issued by NWS

Home | Current Version | Previous Version | Text Only | Print | Product List | Glossary On
Versions: 1 2 3 4 5 6 7 8 9 10 11 12
000
FTUS44 KOUN 031120
TAFCSM
TAF
KCSM 031120Z 0312/0412 VRB04KT P6SM FEW250
     FM031500 23009KT P6SM BKN100 BKN250 PROB30 0321/0323 4SM -TSRA
      BKN040CB
     FM040300 26008KT P6SM SCT250=

USA.gov is the U.S. government's official web portal to all federal, state and local government web resources and services.